Friday, October 20, 2017, 9:14 PM EDT
Back to Local

KMUI, Muir Army Air Field / Indiantown

Location: Jonestown, PA, United States Lat: 40.433
Local Time: 9:14 PM EDT ( 1:14 GMT) Lon: -76.567
Time Zone: US/Eastern Elev: 488 ft

Show me the last for .
Show Decoded

2017-10-20 20:58 METAR KMUI 210058Z AUTO 00000KT 10SM CLR 10/06 A3021 RMK AO2 SLP233 T01030061 =
2017-10-20 19:58 METAR KMUI 202358Z AUTO 00000KT 10SM CLR 12/06 A3021 RMK AO2 SLP234 T01150059
                 10225 20115 52009 =
2017-10-20 18:58 METAR KMUI 202258Z AUTO 00000KT 10SM CLR 14/05 A3020 RMK AO2 SLP231 T01430051 =
2017-10-20 17:58 METAR KMUI 202158Z AUTO 30004KT 10SM CLR 19/06 A3019 RMK AO2 SLP227 T01930060 =
2017-10-20 16:58 METAR KMUI 202058Z AUTO 29003KT 10SM CLR 22/01 A3018 RMK AO2 SLP223 T02190008
                 57006 =
2017-10-20 15:58 METAR KMUI 201958Z AUTO 33005KT 10SM CLR 22/00 A3019 RMK AO2 SLP226 T02211000 =
2017-10-20 14:58 METAR KMUI 201858Z AUTO 33006KT 10SM CLR 23/01 A3019 RMK AO2 SLP226 T02250005 =
2017-10-20 13:58 METAR KMUI 201758Z AUTO 36009KT 10SM CLR 22/01 A3020 RMK AO2 SLP229 T02160013
                 10218 20101 58011 =
2017-10-20 12:58 METAR KMUI 201658Z AUTO 34010G14KT 10SM CLR 21/02 A3022 RMK AO2 SLP236 T02100015
                 =
2017-10-20 11:58 METAR KMUI 201558Z AUTO 34007G14KT 10SM CLR 20/02 A3023 RMK AO2 SLP240 T01980019
                 =
2017-10-20 10:58 METAR KMUI 201458Z 01003KT 10SM SCT250 19/05 A3023 RMK AO2A SLP240 T01930046
                 50009 =
2017-10-20 09:58 METAR KMUI 201358Z 31003KT 10SM BKN250 18/08 A3024 RMK AO2A SLP243 T01790082 =
2017-10-20 08:58 METAR KMUI 201258Z 25007KT 10SM BKN250 15/10 A3023 RMK AO2A SLP238 T01510102 =
2017-10-20 07:58 METAR KMUI 201158Z 24005KT 10SM BKN250 10/10 A3021 RMK AO2A SLP232 T00970095
                 10097 20071 52018 =
2017-10-20 06:58 METAR KMUI 201058Z 00000KT 10SM BKN250 07/07 A3018 RMK AO2A SLP225 T00720072 =
2017-10-20 05:58 METAR KMUI 200958Z AUTO 00000KT 8SM CLR 08/08 A3017 RMK AO2 SLPNO T00770076 =
2017-10-20 04:58 METAR KMUI 200858Z AUTO 00000KT 8SM CLR 08/08 A3015 RMK AO2 SLPNO T00840083
                 53006 =
2017-10-20 03:58 METAR KMUI 200758Z AUTO 26003KT 6SM BR CLR 08/08 A3014 RMK AO2 SLPNO T00830083 =
2017-10-20 02:58 METAR KMUI 200658Z AUTO 00000KT 6SM BR CLR 09/09 A3014 RMK AO2 SLPNO T00910091 =
2017-10-20 01:58 METAR KMUI 200558Z AUTO 00000KT 10SM CLR 08/08 A3014 RMK AO2 SLPNO T00790079
                 10128 20074 50001 =
2017-10-20 00:58 METAR KMUI 200458Z AUTO 00000KT 10SM CLR 09/09 A3013 RMK AO2 SLPNO T00860086
                 402180033 =
2017-10-19 23:58 METAR KMUI 200358Z AUTO 00000KT 10SM CLR 08/08 A3013 RMK AO2 SLP206 T00830083 =
2017-10-19 22:58 METAR KMUI 200258Z AUTO 00000KT 10SM CLR 09/09 A3013 RMK AO2 SLP207 T00920092 =
2017-10-19 21:58 METAR KMUI 200158Z AUTO 00000KT 10SM CLR 10/10 A3014 RMK AO2 SLP210 T01000099 =

Support USWX by starting your Amazon purchase here.